| time (UTC) | temp F | wind direction | speed MPH | gust MPH | rain 1hr in | rain 24hr in | rain mn in | humidity % | barometer mb |
| 20260510033055 | 76 | 0 | 0.0 | 0.0 | 0.00 | 0.08 | 0.08 | 82 | 1010.2 |
| 20260510031551 | 77 | 0 | 0.0 | 0.0 | 0.00 | 0.08 | 0.08 | 81 | 1009.9 |
| 20260510030046 | 78 | 0 | 0.0 | 0.0 | 0.00 | 0.08 | 0.08 | 80 | 1009.5 |
| 20260510024548 | 79 | 0 | 0.0 | 0.0 | 0.00 | 0.08 | 0.08 | 79 | 1009.3 |
| 20260510023046 | 79 | 0 | 0.0 | 0.0 | 0.00 | 0.08 | 0.08 | 78 | 1009.3 |
| 20260510021638 | 80 | 0 | 0.0 | 0.0 | 0.00 | 0.08 | 0.08 | 78 | 1009.3 |
| 20260510020050 | 80 | 0 | 0.0 | 0.0 | 0.00 | 0.08 | 0.08 | 78 | 1009.0 |
| 20260510014555 | 81 | 0 | 0.0 | 0.0 | 0.00 | 0.08 | 0.08 | 77 | 1008.8 |
| 20260510013057 | 81 | 0 | 0.0 | 0.0 | 0.00 | 0.08 | 0.08 | 77 | 1008.9 |
| 20260510011546 | 82 | 0 | 0.0 | 0.0 | 0.00 | 0.08 | 0.08 | 75 | 1008.5 |
| 20260510010053 | 82 | 0 | 0.0 | 0.0 | 0.00 | 0.08 | 0.08 | 74 | 1008.2 |
| 20260510004541 | 83 | 0 | 0.0 | 0.0 | 0.00 | 0.08 | 0.08 | 73 | 1008.2 |
| 20260510003048 | 83 | 0 | 0.0 | 0.0 | 0.00 | 0.08 | 0.08 | 72 | 1008.0 |
| 20260510001547 | 84 | 0 | 0.0 | 0.0 | 0.00 | 0.08 | 0.08 | 72 | 1007.9 |
| 20260510000048 | 84 | 0 | 0.0 | 0.0 | 0.00 | 0.08 | 0.08 | 71 | 1008.0 |
| 20260509234545 | 84 | 0 | 0.0 | 0.0 | 0.00 | 0.08 | 0.08 | 70 | 1008.0 |
| 20260509233045 | 84 | 0 | 0.0 | 0.0 | 0.00 | 0.08 | 0.08 | 69 | 1007.7 |
| 20260509231550 | 84 | 0 | 0.0 | 0.0 | 0.00 | 0.08 | 0.08 | 68 | 1007.7 |
| 20260509230050 | 84 | 0 | 0.0 | 0.0 | 0.00 | 0.08 | 0.08 | 67 | 1007.9 |
| 20260509224547 | 83 | 0 | 0.0 | 0.0 | 0.00 | 0.08 | 0.08 | 66 | 1008.0 |
| 20260509223048 | 83 | 0 | 0.0 | 0.0 | 0.00 | 0.08 | 0.08 | 63 | 1007.9 |
| 20260509221550 | 82 | 0 | 0.0 | 0.0 | 0.00 | 0.08 | 0.08 | 65 | 1008.0 |
| 20260509220041 | 81 | 0 | 0.0 | 0.0 | 0.00 | 0.08 | 0.08 | 65 | 1007.7 |
| 20260509214549 | 80 | 0 | 0.0 | 0.0 | 0.00 | 0.08 | 0.08 | 68 | 1008.1 |
| 20260509213104 | 79 | 0 | 0.0 | 1.0 | 0.00 | 0.08 | 0.08 | 68 | 1008.4 |
| 20260509211552 | 78 | 0 | 1.0 | 5.0 | 0.02 | 0.08 | 0.08 | 70 | 1008.7 |
| 20260509210050 | 76 | 339 | 0.0 | 3.0 | 0.08 | 0.08 | 0.08 | 80 | 1008.6 |
| 20260509204549 | 74 | 0 | 0.0 | 1.0 | 0.08 | 0.08 | 0.08 | 83 | 1008.5 |
| 20260509203049 | 73 | 352 | 1.0 | 5.0 | 0.08 | 0.08 | 0.08 | 88 | 1008.7 |
| 20260509201547 | 74 | 31 | 0.0 | 3.0 | 0.06 | 0.06 | 0.06 | 80 | 1009.2 |
| 20260509200053 | 80 | 120 | 0.0 | 2.0 | 0.00 | 0.00 | 0.00 | 75 | 1009.5 |
| 20260509194555 | 85 | 0 | 0.0 | 1.0 | 0.00 | 0.00 | 0.00 | 77 | 1008.9 |
| 20260509193045 | 87 | 0 | 0.0 | 2.0 | 0.00 | 0.00 | 0.00 | 69 | 1009.1 |
| 20260509191545 | 88 | 219 | 0.0 | 1.0 | 0.00 | 0.00 | 0.00 | 71 | 1009.2 |
| 20260509190048 | 87 | 0 | 0.0 | 2.0 | 0.00 | 0.00 | 0.00 | 73 | 1009.3 |
| 20260509184557 | 87 | 104 | 0.0 | 2.0 | 0.00 | 0.00 | 0.00 | 72 | 1009.6 |
| 20260509183054 | 87 | 0 | 0.0 | 2.0 | 0.00 | 0.00 | 0.00 | 73 | 1009.9 |
| 20260509181552 | 86 | 255 | 0.0 | 3.0 | 0.00 | 0.00 | 0.00 | 74 | 1010.1 |
| 20260509180055 | 85 | 0 | 0.0 | 4.0 | 0.00 | 0.00 | 0.00 | 74 | 1010.3 |
| 20260509174542 | 85 | 0 | 1.0 | 3.0 | 0.00 | 0.00 | 0.00 | 75 | 1010.6 |
| 20260509173102 | 85 | 0 | 0.0 | 3.0 | 0.00 | 0.00 | 0.00 | 75 | 1011.0 |
| 20260509171547 | 85 | 0 | 0.0 | 1.0 | 0.00 | 0.00 | 0.00 | 77 | 1010.8 |
| 20260509170047 | 83 | 0 | 0.0 | 4.0 | 0.00 | 0.00 | 0.00 | 79 | 1010.7 |
| 20260509164551 | 82 | 0 | 0.0 | 3.0 | 0.00 | 0.00 | 0.00 | 80 | 1011.0 |
| 20260509163052 | 81 | 0 | 0.0 | 3.0 | 0.00 | 0.00 | 0.00 | 81 | 1011.1 |
| 20260509161559 | 81 | 270 | 0.0 | 3.0 | 0.00 | 0.00 | 0.00 | 81 | 1011.0 |
| 20260509160047 | 80 | 285 | 0.0 | 2.0 | 0.00 | 0.00 | 0.00 | 84 | 1010.8 |
| 20260509154552 | 79 | 0 | 0.0 | 1.0 | 0.00 | 0.00 | 0.00 | 85 | 1010.9 |
| 20260509153059 | 79 | 336 | 0.0 | 1.0 | 0.00 | 0.00 | 0.00 | 87 | 1010.9 |
| 20260509151552 | 78 | 0 | 0.0 | 3.0 | 0.00 | 0.00 | 0.00 | 90 | 1010.9 |
| 20260509150042 | 76 | 0 | 0.0 | 3.0 | 0.00 | 0.00 | 0.00 | 93 | 1011.1 |
| 20260509144551 | 75 | 283 | 0.0 | 1.0 | 0.00 | 0.00 | 0.00 | 95 | 1010.9 |
| 20260509143047 | 74 | 0 | 0.0 | 1.0 | 0.00 | 0.00 | 0.00 | 96 | 1010.7 |
| 20260509141546 | 73 | 0 | 0.0 | 1.0 | 0.00 | 0.00 | 0.00 | 96 | 1010.3 |
| 20260509140103 | 73 | 0 | 0.0 | 1.0 | 0.00 | 0.00 | 0.00 | 96 | 1010.8 |
| 20260509134541 | 73 | 0 | 0.0 | 0.0 | 0.00 | 0.00 | 0.00 | 95 | 1010.8 |
| 20260509133048 | 73 | 0 | 0.0 | 0.0 | 0.00 | 0.00 | 0.00 | 96 | 1010.9 |
| 20260509131547 | 73 | 0 | 0.0 | 1.0 | 0.00 | 0.00 | 0.00 | 96 | 1011.0 |
| 20260509130051 | 73 | 0 | 0.0 | 1.0 | 0.00 | 0.00 | 0.00 | 96 | 1010.4 |
| 20260509124551 | 73 | 0 | 0.0 | 0.0 | 0.00 | 0.00 | 0.00 | 95 | 1010.0 |
| 20260509123045 | 73 | 0 | 0.0 | 0.0 | 0.00 | 0.00 | 0.00 | 96 | 1010.3 |
| 20260509121548 | 73 | 0 | 0.0 | 0.0 | 0.00 | 0.00 | 0.00 | 95 | 1010.3 |
| 20260509120053 | 73 | 0 | 0.0 | 0.0 | 0.00 | 0.00 | 0.00 | 95 | 1010.5 |
| 20260509114546 | 73 | 0 | 0.0 | 0.0 | 0.00 | 0.00 | 0.00 | 95 | 1010.5 |
| 20260509113046 | 73 | 0 | 0.0 | 0.0 | 0.00 | 0.00 | 0.00 | 95 | 1011.0 |
| 20260509111541 | 73 | 0 | 0.0 | 0.0 | 0.00 | 0.00 | 0.00 | 95 | 1011.0 |
| 20260509110039 | 73 | 89 | 0.0 | 1.0 | 0.00 | 0.00 | 0.00 | 95 | 1011.0 |
| 20260509104553 | 73 | 0 | 0.0 | 0.0 | 0.00 | 0.00 | 0.00 | 95 | 1011.4 |
| 20260509103052 | 73 | 0 | 0.0 | 0.0 | 0.00 | 0.00 | 0.00 | 95 | 1011.3 |
| 20260509101546 | 73 | 0 | 0.0 | 0.0 | 0.00 | 0.00 | 0.00 | 95 | 1011.0 |
| 20260509100043 | 73 | 0 | 0.0 | 0.0 | 0.00 | 0.00 | 0.00 | 95 | 1010.2 |
| 20260509094555 | 73 | 0 | 0.0 | 0.0 | 0.00 | 0.00 | 0.00 | 95 | 1010.1 |
| 20260509093047 | 73 | 0 | 0.0 | 0.0 | 0.00 | 0.00 | 0.00 | 95 | 1010.1 |
| 20260509091553 | 73 | 0 | 0.0 | 0.0 | 0.00 | 0.00 | 0.00 | 94 | 1009.9 |
| 20260509090054 | 73 | 0 | 0.0 | 0.0 | 0.00 | 0.00 | 0.00 | 94 | 1009.8 |
| 20260509084547 | 73 | 0 | 0.0 | 0.0 | 0.00 | 0.00 | 0.00 | 94 | 1010.1 |
| 20260509083041 | 73 | 0 | 0.0 | 0.0 | 0.00 | 0.00 | 0.00 | 93 | 1010.1 |
| 20260509081547 | 73 | 0 | 0.0 | 0.0 | 0.00 | 0.00 | 0.00 | 93 | 1010.7 |
| 20260509080051 | 73 | 0 | 0.0 | 0.0 | 0.00 | 0.00 | 0.00 | 93 | 1010.3 |
| 20260509074605 | 73 | 0 | 0.0 | 0.0 | 0.00 | 0.00 | 0.00 | 92 | 1010.2 |
| 20260509073058 | 73 | 0 | 0.0 | 0.0 | 0.00 | 0.00 | 0.00 | 92 | 1010.4 |
| 20260509071545 | 73 | 0 | 0.0 | 0.0 | 0.00 | 0.00 | 0.00 | 92 | 1010.6 |
| 20260509070044 | 73 | 0 | 0.0 | 0.0 | 0.00 | 0.00 | 0.00 | 92 | 1010.5 |
| 20260509064543 | 73 | 0 | 0.0 | 0.0 | 0.00 | 0.00 | 0.00 | 92 | 1010.2 |
| 20260509063058 | 73 | 0 | 0.0 | 1.0 | 0.00 | 0.00 | 0.00 | 92 | 1010.4 |
| 20260509061541 | 73 | 0 | 0.0 | 1.0 | 0.00 | 0.00 | 0.00 | 91 | 1010.2 |
| 20260509060059 | 73 | 0 | 0.0 | 2.0 | 0.00 | 0.00 | 0.00 | 91 | 1009.9 |
| 20260509054548 | 73 | 0 | 0.0 | 6.0 | 0.00 | 0.00 | 0.00 | 90 | 1010.2 |
| 20260509053057 | 73 | 0 | 0.0 | 1.0 | 0.00 | 0.00 | 0.00 | 90 | 1010.0 |
| 20260509051547 | 74 | 0 | 0.0 | 0.0 | 0.00 | 0.00 | 0.00 | 90 | 1009.6 |
| 20260509050044 | 74 | 0 | 0.0 | 0.0 | 0.00 | 0.00 | 0.00 | 89 | 1009.8 |
| 20260509044547 | 74 | 0 | 0.0 | 1.0 | 0.00 | 0.00 | 0.00 | 89 | 1009.6 |
| 20260509043053 | 74 | 0 | 0.0 | 0.0 | 0.00 | 0.00 | 0.00 | 88 | 1009.7 |
| 20260509041548 | 75 | 0 | 0.0 | 0.0 | 0.00 | 0.00 | 0.00 | 87 | 1009.7 |
| 20260509040059 | 75 | 0 | 0.0 | 0.0 | 0.00 | 0.00 | 0.00 | 86 | 1010.0 |
| 20260509034547 | 75 | 0 | 0.0 | 0.0 | 0.00 | 0.00 | 0.00 | 86 | 1010.0 |